Time,TemperatureF,DewpointF,PressureIn,WindDirection,WindDirectionDegrees,WindSpeedMPH,WindSpeedGustMPH,Humidity,HourlyPrecipIn,Conditions,Clouds,dailyrainin,SolarRadiationWatts/m^2,SoftwareType,DateUTC
2013-01-17 00:12:00,12.0,6.0,-100.00,SW,227,4.0,7.0,76,0.00,,,0.00,0.000000,,2013-01-17 07:12:00,
2013-01-17 00:22:00,12.0,6.0,-100.00,SW,227,4.0,7.0,76,0.00,,,0.00,0.000000,,2013-01-17 07:22:00,
2013-01-17 00:32:00,12.0,6.0,-100.00,SW,227,4.0,7.0,76,0.00,,,0.00,0.000000,,2013-01-17 07:32:00,
2013-01-17 00:42:00,12.0,6.0,-100.00,SW,227,4.0,7.0,76,0.00,,,0.00,0.000000,,2013-01-17 07:42:00,
2013-01-17 00:52:00,10.0,3.0,-100.00,West,274,5.0,7.0,73,0.00,,,0.00,0.000000,,2013-01-17 07:52:00,
2013-01-17 01:12:00,10.0,3.0,-100.00,West,274,5.0,7.0,73,0.00,,,0.00,0.000000,,2013-01-17 08:12:00,
2013-01-17 01:22:00,10.0,3.0,-100.00,West,274,5.0,7.0,73,0.00,,,0.00,0.000000,,2013-01-17 08:22:00,
2013-01-17 01:32:00,10.0,3.0,-100.00,West,274,5.0,7.0,73,0.00,,,0.00,0.000000,,2013-01-17 08:32:00,
2013-01-17 01:43:00,10.0,3.0,-100.00,West,274,5.0,7.0,73,0.00,,,0.00,0.000000,,2013-01-17 08:43:00,
2013-01-17 01:52:00,12.0,4.0,-100.00,West,263,7.0,14.0,70,0.00,,,0.00,0.000000,,2013-01-17 08:52:00,
2013-01-17 02:12:00,12.0,4.0,-100.00,West,263,7.0,14.0,70,0.00,,,0.00,0.000000,,2013-01-17 09:12:00,
2013-01-17 02:22:00,12.0,4.0,-100.00,West,263,7.0,14.0,70,0.00,,,0.00,0.000000,,2013-01-17 09:22:00,
2013-01-17 02:32:00,12.0,4.0,-100.00,West,263,7.0,14.0,70,0.00,,,0.00,0.000000,,2013-01-17 09:32:00,
2013-01-17 02:42:00,12.0,4.0,-100.00,West,263,7.0,14.0,70,0.00,,,0.00,0.000000,,2013-01-17 09:42:00,
2013-01-17 02:52:00,9.0,3.0,-100.00,West,275,5.0,11.0,77,0.00,,,0.00,0.000000,,2013-01-17 09:52:00,
2013-01-17 03:12:00,9.0,3.0,-100.00,West,275,5.0,11.0,77,0.00,,,0.00,0.000000,,2013-01-17 10:12:00,
2013-01-17 03:22:00,9.0,3.0,-100.00,West,275,5.0,11.0,77,0.00,,,0.00,0.000000,,2013-01-17 10:22:00,
2013-01-17 03:32:00,9.0,3.0,-100.00,West,275,5.0,11.0,77,0.00,,,0.00,0.000000,,2013-01-17 10:32:00,
2013-01-17 03:42:00,9.0,3.0,-100.00,West,275,5.0,11.0,77,0.00,,,0.00,0.000000,,2013-01-17 10:42:00,
2013-01-17 03:52:00,12.0,4.0,-100.00,West,278,6.0,9.0,71,0.00,,,0.00,0.000000,,2013-01-17 10:52:00,
2013-01-17 04:12:00,12.0,4.0,-100.00,West,278,6.0,9.0,71,0.00,,,0.00,0.000000,,2013-01-17 11:12:00,
2013-01-17 04:22:00,12.0,4.0,-100.00,West,278,6.0,9.0,71,0.00,,,0.00,0.000000,,2013-01-17 11:22:00,
2013-01-17 04:33:00,12.0,4.0,-100.00,West,278,6.0,9.0,71,0.00,,,0.00,0.000000,,2013-01-17 11:33:00,
2013-01-17 04:42:00,12.0,4.0,-100.00,West,278,6.0,9.0,71,0.00,,,0.00,0.000000,,2013-01-17 11:42:00,
2013-01-17 04:52:00,12.0,4.0,-100.00,West,279,9.0,14.0,69,0.00,,,-99.99,0.000000,,2013-01-17 11:52:00,
2013-01-17 05:12:00,12.0,4.0,-100.00,West,279,9.0,14.0,69,0.00,,,-99.99,0.000000,,2013-01-17 12:12:00,
2013-01-17 05:23:00,12.0,4.0,-100.00,West,279,9.0,14.0,69,0.00,,,-99.99,0.000000,,2013-01-17 12:23:00,
2013-01-17 05:33:00,12.0,4.0,-100.00,West,279,9.0,14.0,69,0.00,,,-99.99,0.000000,,2013-01-17 12:33:00,
2013-01-17 05:42:00,12.0,4.0,-100.00,West,279,9.0,14.0,69,0.00,,,-99.99,0.000000,,2013-01-17 12:42:00,
2013-01-17 05:52:00,12.0,4.0,-100.00,West,269,7.0,11.0,71,0.00,,,0.00,0.000000,,2013-01-17 12:52:00,
2013-01-17 06:12:00,12.0,4.0,-100.00,West,269,7.0,11.0,71,0.00,,,0.00,0.000000,,2013-01-17 13:12:00,
2013-01-17 06:23:00,12.0,4.0,-100.00,West,269,7.0,11.0,71,0.00,,,0.00,0.000000,,2013-01-17 13:23:00,
2013-01-17 06:33:00,12.0,4.0,-100.00,West,269,7.0,11.0,71,0.00,,,0.00,0.000000,,2013-01-17 13:33:00,
2013-01-17 06:43:00,12.0,4.0,-100.00,West,269,7.0,11.0,71,0.00,,,0.00,0.000000,,2013-01-17 13:43:00,
2013-01-17 06:52:00,13.0,5.0,-100.00,West,268,9.0,13.0,69,0.00,,,0.00,0.000000,,2013-01-17 13:52:00,
2013-01-17 07:12:00,13.0,5.0,-100.00,West,268,9.0,13.0,69,0.00,,,0.00,0.000000,,2013-01-17 14:12:00,
2013-01-17 07:23:00,13.0,5.0,-100.00,West,268,9.0,13.0,69,0.00,,,0.00,0.000000,,2013-01-17 14:23:00,
2013-01-17 07:33:00,13.0,5.0,-100.00,West,268,9.0,13.0,69,0.00,,,0.00,0.000000,,2013-01-17 14:33:00,
2013-01-17 07:43:00,13.0,5.0,-100.00,West,268,9.0,13.0,69,0.00,,,0.00,0.000000,,2013-01-17 14:43:00,
2013-01-17 07:52:00,11.0,4.0,-100.00,West,270,6.0,12.0,72,0.00,,,0.00,5.000000,,2013-01-17 14:52:00,
2013-01-17 08:23:00,11.0,4.0,-100.00,West,270,6.0,12.0,72,0.00,,,0.00,5.000000,,2013-01-17 15:23:00,
2013-01-17 08:33:00,11.0,4.0,-100.00,West,270,6.0,12.0,72,0.00,,,0.00,5.000000,,2013-01-17 15:33:00,
2013-01-17 08:43:00,11.0,4.0,-100.00,West,270,6.0,12.0,72,0.00,,,0.00,5.000000,,2013-01-17 15:43:00,
2013-01-17 08:52:00,18.0,5.0,-100.00,West,265,8.0,13.0,57,0.00,,,0.00,101.000000,,2013-01-17 15:52:00,
2013-01-17 09:12:00,18.0,5.0,-100.00,West,265,8.0,13.0,57,0.00,,,0.00,101.000000,,2013-01-17 16:12:00,
2013-01-17 09:23:00,18.0,5.0,-100.00,West,265,8.0,13.0,57,0.00,,,0.00,101.000000,,2013-01-17 16:23:00,
2013-01-17 09:33:00,18.0,5.0,-100.00,West,265,8.0,13.0,57,0.00,,,0.00,101.000000,,2013-01-17 16:33:00,
2013-01-17 09:43:00,18.0,5.0,-100.00,West,265,8.0,13.0,57,0.00,,,0.00,101.000000,,2013-01-17 16:43:00,
2013-01-17 09:52:00,26.0,6.0,-100.00,West,265,10.0,15.0,42,0.00,,,0.00,349.000000,,2013-01-17 16:52:00,
2013-01-17 10:13:00,26.0,6.0,-100.00,West,265,10.0,15.0,42,0.00,,,0.00,349.000000,,2013-01-17 17:13:00,
2013-01-17 10:23:00,26.0,6.0,-100.00,West,265,10.0,15.0,42,0.00,,,0.00,349.000000,,2013-01-17 17:23:00,
2013-01-17 10:33:00,26.0,6.0,-100.00,West,265,10.0,15.0,42,0.00,,,0.00,349.000000,,2013-01-17 17:33:00,
2013-01-17 10:43:00,26.0,6.0,-100.00,West,265,10.0,15.0,42,0.00,,,0.00,349.000000,,2013-01-17 17:43:00,
2013-01-17 10:52:00,30.0,6.0,-100.00,WSW,249,10.0,17.0,36,0.00,,,0.00,503.000000,,2013-01-17 17:52:00,
2013-01-17 11:12:00,30.0,6.0,-100.00,WSW,249,10.0,17.0,36,0.00,,,0.00,503.000000,,2013-01-17 18:12:00,
2013-01-17 11:22:00,30.0,6.0,-100.00,WSW,249,10.0,17.0,36,0.00,,,0.00,503.000000,,2013-01-17 18:22:00,
2013-01-17 11:33:00,30.0,6.0,-100.00,WSW,249,10.0,17.0,36,0.00,,,0.00,503.000000,,2013-01-17 18:33:00,
2013-01-17 11:43:00,30.0,6.0,-100.00,WSW,249,10.0,17.0,36,0.00,,,0.00,503.000000,,2013-01-17 18:43:00,
2013-01-17 11:52:00,33.0,7.0,-100.00,WSW,249,9.0,14.0,33,0.00,,,0.00,601.000000,,2013-01-17 18:52:00,
2013-01-17 12:12:00,33.0,7.0,-100.00,WSW,249,9.0,14.0,33,0.00,,,0.00,601.000000,,2013-01-17 19:12:00,
2013-01-17 12:23:00,33.0,7.0,-100.00,WSW,249,9.0,14.0,33,0.00,,,0.00,601.000000,,2013-01-17 19:23:00,
2013-01-17 12:33:00,33.0,7.0,-100.00,WSW,249,9.0,14.0,33,0.00,,,0.00,601.000000,,2013-01-17 19:33:00,
2013-01-17 12:43:00,33.0,7.0,-100.00,WSW,249,9.0,14.0,33,0.00,,,0.00,601.000000,,2013-01-17 19:43:00,
2013-01-17 12:52:00,35.0,7.0,-100.00,WSW,251,10.0,15.0,30,0.00,,,0.00,632.000000,,2013-01-17 19:52:00,
2013-01-17 13:23:00,35.0,7.0,-100.00,WSW,251,10.0,15.0,30,0.00,,,0.00,632.000000,,2013-01-17 20:23:00,
2013-01-17 13:33:00,35.0,7.0,-100.00,WSW,251,10.0,15.0,30,0.00,,,0.00,632.000000,,2013-01-17 20:33:00,
2013-01-17 13:43:00,35.0,7.0,-100.00,WSW,251,10.0,15.0,30,0.00,,,0.00,632.000000,,2013-01-17 20:43:00,
2013-01-17 13:52:00,37.0,5.0,-100.00,WSW,255,11.0,17.0,26,0.00,,,0.00,593.000000,,2013-01-17 20:52:00,
2013-01-17 14:23:00,37.0,5.0,-100.00,WSW,255,11.0,17.0,26,0.00,,,0.00,593.000000,,2013-01-17 21:23:00,
2013-01-17 14:33:00,37.0,5.0,-100.00,WSW,255,11.0,17.0,26,0.00,,,0.00,593.000000,,2013-01-17 21:33:00,
2013-01-17 14:43:00,37.0,5.0,-100.00,WSW,255,11.0,17.0,26,0.00,,,0.00,593.000000,,2013-01-17 21:43:00,
2013-01-17 14:52:00,37.0,6.0,-100.00,WSW,250,10.0,18.0,27,0.00,,,0.00,489.000000,,2013-01-17 21:52:00,
2013-01-17 15:12:00,37.0,6.0,-100.00,WSW,250,10.0,18.0,27,0.00,,,0.00,489.000000,,2013-01-17 22:12:00,
2013-01-17 15:23:00,37.0,6.0,-100.00,WSW,250,10.0,18.0,27,0.00,,,0.00,489.000000,,2013-01-17 22:23:00,
2013-01-17 15:33:00,37.0,6.0,-100.00,WSW,250,10.0,18.0,27,0.00,,,0.00,489.000000,,2013-01-17 22:33:00,
2013-01-17 15:43:00,37.0,6.0,-100.00,WSW,250,10.0,18.0,27,0.00,,,0.00,489.000000,,2013-01-17 22:43:00,
2013-01-17 15:52:00,34.0,7.0,-100.00,WSW,250,9.0,15.0,32,0.00,,,0.00,318.000000,,2013-01-17 22:52:00,
2013-01-17 16:12:00,34.0,7.0,-100.00,WSW,250,9.0,15.0,32,0.00,,,0.00,318.000000,,2013-01-17 23:12:00,
2013-01-17 16:22:00,34.0,7.0,-100.00,WSW,250,9.0,15.0,32,0.00,,,0.00,318.000000,,2013-01-17 23:22:00,
2013-01-17 16:33:00,34.0,7.0,-100.00,WSW,250,9.0,15.0,32,0.00,,,0.00,318.000000,,2013-01-17 23:33:00,
2013-01-17 16:43:00,34.0,7.0,-100.00,WSW,250,9.0,15.0,32,0.00,,,0.00,318.000000,,2013-01-17 23:43:00,
2013-01-17 16:52:00,27.0,6.0,-100.00,WSW,250,6.0,13.0,41,0.00,,,0.00,108.000000,,2013-01-17 23:52:00,
2013-01-17 17:23:00,27.0,6.0,-100.00,WSW,250,6.0,13.0,41,0.00,,,0.00,108.000000,,2013-01-18 00:23:00,
2013-01-17 17:32:00,27.0,6.0,-100.00,WSW,250,6.0,13.0,41,0.00,,,0.00,108.000000,,2013-01-18 00:32:00,
2013-01-17 17:42:00,27.0,6.0,-100.00,WSW,250,6.0,13.0,41,0.00,,,0.00,108.000000,,2013-01-18 00:42:00,
2013-01-17 17:52:00,22.0,5.0,-100.00,WSW,254,6.0,10.0,48,0.00,,,0.00,3.000000,,2013-01-18 00:52:00,
2013-01-17 18:12:00,22.0,5.0,-100.00,WSW,254,6.0,10.0,48,0.00,,,0.00,3.000000,,2013-01-18 01:12:00,
2013-01-17 18:23:00,22.0,5.0,-100.00,WSW,254,6.0,10.0,48,0.00,,,0.00,3.000000,,2013-01-18 01:23:00,
2013-01-17 18:33:00,22.0,5.0,-100.00,WSW,254,6.0,10.0,48,0.00,,,0.00,3.000000,,2013-01-18 01:33:00,
2013-01-17 18:43:00,22.0,5.0,-100.00,WSW,254,6.0,10.0,48,0.00,,,0.00,3.000000,,2013-01-18 01:43:00,
2013-01-17 18:52:00,21.0,7.0,-100.00,WSW,248,8.0,12.0,53,0.00,,,0.00,0.000000,,2013-01-18 01:52:00,
2013-01-17 19:12:00,21.0,7.0,-100.00,WSW,248,8.0,12.0,53,0.00,,,0.00,0.000000,,2013-01-18 02:12:00,
2013-01-17 19:22:00,21.0,7.0,-100.00,WSW,248,8.0,12.0,53,0.00,,,0.00,0.000000,,2013-01-18 02:22:00,
2013-01-17 19:33:00,21.0,7.0,-100.00,WSW,248,8.0,12.0,53,0.00,,,0.00,0.000000,,2013-01-18 02:33:00,
2013-01-17 19:42:00,21.0,7.0,-100.00,WSW,248,8.0,12.0,53,0.00,,,0.00,0.000000,,2013-01-18 02:42:00,
2013-01-17 19:52:00,19.0,6.0,-100.00,WSW,252,8.0,13.0,56,0.00,,,0.00,0.000000,,2013-01-18 02:52:00,
2013-01-17 20:23:00,19.0,6.0,-100.00,WSW,252,8.0,13.0,56,0.00,,,0.00,0.000000,,2013-01-18 03:23:00,
2013-01-17 20:33:00,19.0,6.0,-100.00,WSW,252,8.0,13.0,56,0.00,,,0.00,0.000000,,2013-01-18 03:33:00,
2013-01-17 20:42:00,19.0,6.0,-100.00,WSW,252,8.0,13.0,56,0.00,,,0.00,0.000000,,2013-01-18 03:42:00,
2013-01-17 20:52:00,20.0,4.0,-100.00,WSW,255,10.0,16.0,50,0.00,,,0.00,0.000000,,2013-01-18 03:52:00,
2013-01-17 21:12:00,20.0,4.0,-100.00,WSW,255,10.0,16.0,50,0.00,,,0.00,0.000000,,2013-01-18 04:12:00,
2013-01-17 21:22:00,20.0,4.0,-100.00,WSW,255,10.0,16.0,50,0.00,,,0.00,0.000000,,2013-01-18 04:22:00,
2013-01-17 21:33:00,20.0,4.0,-100.00,WSW,255,10.0,16.0,50,0.00,,,0.00,0.000000,,2013-01-18 04:33:00,
2013-01-17 21:42:00,20.0,4.0,-100.00,WSW,255,10.0,16.0,50,0.00,,,0.00,0.000000,,2013-01-18 04:42:00,
2013-01-17 21:52:00,21.0,3.0,-100.00,WSW,247,11.0,19.0,45,0.00,,,0.00,0.000000,,2013-01-18 04:52:00,
2013-01-17 22:12:00,21.0,3.0,-100.00,WSW,247,11.0,19.0,45,0.00,,,0.00,0.000000,,2013-01-18 05:12:00,
2013-01-17 22:22:00,21.0,3.0,-100.00,WSW,247,11.0,19.0,45,0.00,,,0.00,0.000000,,2013-01-18 05:22:00,
2013-01-17 22:33:00,21.0,3.0,-100.00,WSW,247,11.0,19.0,45,0.00,,,0.00,0.000000,,2013-01-18 05:33:00,
2013-01-17 22:42:00,21.0,3.0,-100.00,WSW,247,11.0,19.0,45,0.00,,,0.00,0.000000,,2013-01-18 05:42:00,
2013-01-17 22:52:00,20.0,3.0,-100.00,WSW,250,11.0,16.0,46,0.00,,,0.00,0.000000,,2013-01-18 05:52:00,
2013-01-17 23:12:00,20.0,3.0,-100.00,WSW,250,11.0,16.0,46,0.00,,,0.00,0.000000,,2013-01-18 06:12:00,
2013-01-17 23:22:00,20.0,3.0,-100.00,WSW,250,11.0,16.0,46,0.00,,,0.00,0.000000,,2013-01-18 06:22:00,
2013-01-17 23:33:00,20.0,3.0,-100.00,WSW,250,11.0,16.0,46,0.00,,,0.00,0.000000,,2013-01-18 06:33:00,
2013-01-17 23:43:00,20.0,3.0,-100.00,WSW,250,11.0,16.0,46,0.00,,,0.00,0.000000,,2013-01-18 06:43:00,
2013-01-17 23:52:00,19.0,1.0,-100.00,WSW,255,11.0,17.0,44,0.00,,,0.00,0.000000,,2013-01-18 06:52:00,